createdAt,value
2022-12-11T00:00:52.462Z,6.13
2022-12-11T00:03:39.862Z,3.00
2022-12-11T00:06:10.363Z,5.07
2022-12-11T00:08:38.205Z,6.80
2022-12-11T00:11:09.292Z,3.85
2022-12-11T00:13:36.456Z,4.03
2022-12-11T00:16:04.131Z,4.35
2022-12-11T00:18:31.773Z,6.70
2022-12-11T00:21:03.550Z,5.35
2022-12-11T00:23:30.783Z,3.38
2022-12-11T00:25:58.302Z,4.30
2022-12-11T00:28:25.562Z,5.75
2022-12-11T00:30:53.072Z,4.82
2022-12-11T00:33:20.304Z,2.33
2022-12-11T00:35:48.310Z,5.65
2022-12-11T00:38:20.878Z,2.97
2022-12-11T00:40:49.358Z,4.28
2022-12-11T00:43:17.106Z,4.90
2022-12-11T00:45:46.853Z,4.13
2022-12-11T00:48:14.485Z,3.60
2022-12-11T00:50:42.789Z,3.45
2022-12-11T00:53:10.074Z,3.67
2022-12-11T00:55:39.839Z,4.53
2022-12-11T00:58:07.527Z,4.82
2022-12-11T01:00:35.541Z,3.17
2022-12-11T01:03:03.255Z,3.17
2022-12-11T01:05:31.083Z,3.95
2022-12-11T01:07:58.223Z,4.78
2022-12-11T01:10:26.473Z,3.38
2022-12-11T01:12:59.151Z,4.30
2022-12-11T01:15:29.788Z,5.88
2022-12-11T01:17:57.679Z,6.63
2022-12-11T01:20:27.151Z,5.78
2022-12-11T01:22:56.772Z,8.48
2022-12-11T01:25:25.088Z,9.93
2022-12-11T01:27:54.370Z,7.50
2022-12-11T01:30:23.931Z,7.82
2022-12-11T01:32:51.479Z,7.70
2022-12-11T01:35:19.409Z,7.22
2022-12-11T01:37:46.780Z,7.07
2022-12-11T01:40:16.513Z,13.35
2022-12-11T01:42:44.018Z,8.85
2022-12-11T01:45:28.397Z,10.65
2022-12-11T01:48:01.739Z,8.70
2022-12-11T01:50:34.132Z,11.60
2022-12-11T01:53:02.601Z,13.13
2022-12-11T01:55:30.258Z,11.90
2022-12-11T01:57:57.697Z,18.77
2022-12-11T02:00:25.308Z,13.85
2022-12-11T02:02:52.632Z,17.30
2022-12-11T02:05:20.276Z,22.45
2022-12-11T02:07:52.859Z,14.52
2022-12-11T02:10:21.430Z,19.88
2022-12-11T02:13:02.140Z,12.02
2022-12-11T02:15:35.929Z,14.30
2022-12-11T02:18:08.789Z,12.30
2022-12-11T02:20:46.521Z,14.90
2022-12-11T02:23:13.762Z,7.22
2022-12-11T02:26:18.648Z,7.97
2022-12-11T02:28:50.989Z,5.22
2022-12-11T02:31:26.663Z,6.10
2022-12-11T02:34:12.322Z,7.68
2022-12-11T02:36:48.959Z,6.57
2022-12-11T02:39:18.088Z,11.07
2022-12-11T02:41:50.915Z,14.65
2022-12-11T02:44:23.533Z,16.42
2022-12-11T02:46:52.585Z,13.15
2022-12-11T02:49:22.571Z,15.60
2022-12-11T02:51:52.841Z,14.00
2022-12-11T02:54:25.517Z,14.38
2022-12-11T02:57:01.951Z,14.77
2022-12-11T03:02:09.451Z,15.82
2022-12-11T03:04:36.906Z,8.70
2022-12-11T03:07:14.151Z,10.07
2022-12-11T03:09:43.827Z,10.38
2022-12-11T03:12:14.269Z,10.13
2022-12-11T03:14:42.988Z,7.05
2022-12-11T03:17:23.219Z,7.45
2022-12-11T03:20:00.871Z,7.28
2022-12-11T03:22:49.008Z,8.43
2022-12-11T03:25:21.360Z,6.90
2022-12-11T03:27:58.449Z,4.70
2022-12-11T03:30:28.816Z,8.60
2022-12-11T03:33:05.146Z,11.20
2022-12-11T03:35:38.889Z,6.32
2022-12-11T03:38:16.176Z,10.80
2022-12-11T03:40:46.696Z,6.15
2022-12-11T03:43:16.441Z,6.85
2022-12-11T03:45:45.547Z,9.05
2022-12-11T03:48:15.025Z,9.10
2022-12-11T03:50:42.864Z,7.80
2022-12-11T03:53:10.798Z,7.05
2022-12-11T03:55:39.821Z,13.57
2022-12-11T03:58:07.862Z,19.23
2022-12-11T04:00:35.178Z,15.43
2022-12-11T04:03:15.047Z,12.00
2022-12-11T04:05:50.735Z,12.15
2022-12-11T04:08:20.869Z,21.02
2022-12-11T04:10:48.830Z,8.13
2022-12-11T04:13:16.292Z,8.60
2022-12-11T04:15:43.650Z,6.03
2022-12-11T04:18:29.920Z,8.73
2022-12-11T04:21:16.254Z,7.82
2022-12-11T04:24:02.392Z,4.95
2022-12-11T04:26:29.550Z,6.67
2022-12-11T04:28:56.985Z,8.00
2022-12-11T04:31:24.307Z,5.95
2022-12-11T04:33:51.939Z,5.18
2022-12-11T04:36:19.232Z,7.85
2022-12-11T04:38:46.713Z,6.80
2022-12-11T04:41:16.091Z,10.48
2022-12-11T04:43:47.067Z,10.48
2022-12-11T04:46:20.264Z,8.63
2022-12-11T04:48:55.474Z,11.68
2022-12-11T04:51:24.863Z,9.63
2022-12-11T04:53:52.753Z,8.38
2022-12-11T04:56:20.229Z,5.40
2022-12-11T04:58:48.508Z,4.78
2022-12-11T05:01:21.303Z,6.57
2022-12-11T05:03:49.601Z,12.00
2022-12-11T05:06:16.841Z,6.13
2022-12-11T05:08:45.591Z,6.68
2022-12-11T05:11:15.446Z,7.18
2022-12-11T05:13:43.773Z,6.72
2022-12-11T05:16:14.469Z,6.80
2022-12-11T05:18:42.596Z,4.82
2022-12-11T05:21:14.632Z,4.45
2022-12-11T05:23:43.431Z,9.98
2022-12-11T05:26:18.778Z,9.68
2022-12-11T05:28:47.076Z,19.33
2022-12-11T05:31:17.276Z,10.68
2022-12-11T05:33:46.307Z,7.50
2022-12-11T05:36:20.986Z,4.75
2022-12-11T05:38:48.991Z,6.68
2022-12-11T05:41:19.252Z,6.85
2022-12-11T05:43:47.085Z,9.57
2022-12-11T05:46:20.193Z,7.00
2022-12-11T05:48:50.767Z,7.38
2022-12-11T05:51:19.122Z,8.20
2022-12-11T05:53:48.662Z,9.25
2022-12-11T05:56:28.130Z,5.22
2022-12-11T05:58:56.177Z,5.65
2022-12-11T06:01:30.222Z,6.18
2022-12-11T06:03:59.020Z,5.07
2022-12-11T06:06:27.169Z,6.28
2022-12-11T06:08:57.187Z,4.75
2022-12-11T06:11:26.399Z,3.05
2022-12-11T06:13:54.377Z,7.70
2022-12-11T06:16:22.659Z,4.18
2022-12-11T06:18:50.491Z,7.40
2022-12-11T06:21:24.115Z,3.92
2022-12-11T06:23:53.627Z,8.70
2022-12-11T06:26:21.818Z,6.68
2022-12-11T06:28:50.171Z,4.90
2022-12-11T06:31:18.128Z,5.40
2022-12-11T06:33:46.131Z,11.38
2022-12-11T06:36:16.288Z,6.35
2022-12-11T06:38:44.232Z,10.27
2022-12-11T06:41:11.622Z,11.95
2022-12-11T06:43:41.477Z,9.50
2022-12-11T06:46:17.489Z,8.13
2022-12-11T06:48:46.028Z,7.63
2022-12-11T06:51:15.932Z,7.82
2022-12-11T06:53:44.300Z,5.82
2022-12-11T06:56:15.852Z,5.78
2022-12-11T06:58:44.288Z,7.18
2022-12-11T07:01:21.274Z,10.02
2022-12-11T07:03:49.415Z,8.80
2022-12-11T07:06:18.311Z,9.32
2022-12-11T07:08:45.898Z,9.68
2022-12-11T07:11:15.587Z,9.30
2022-12-11T07:13:43.618Z,7.57
2022-12-11T07:16:13.146Z,9.60
2022-12-11T07:18:43.232Z,9.57
2022-12-11T07:21:13.060Z,7.93
2022-12-11T07:23:41.315Z,8.68
2022-12-11T07:26:13.522Z,10.38
2022-12-11T07:28:41.813Z,5.20
2022-12-11T07:31:11.312Z,9.75
2022-12-11T07:33:39.256Z,10.07
2022-12-11T07:36:08.351Z,6.95
2022-12-11T07:38:36.647Z,8.50
2022-12-11T07:41:05.895Z,6.85
2022-12-11T07:43:35.519Z,5.65
2022-12-11T07:46:08.569Z,5.75
2022-12-11T07:48:39.105Z,6.38
2022-12-11T07:51:12.491Z,5.07
2022-12-11T07:53:40.168Z,7.03
2022-12-11T07:56:08.216Z,7.10
2022-12-11T07:58:36.312Z,11.65
2022-12-11T08:01:03.570Z,9.57
2022-12-11T08:03:31.212Z,7.80
2022-12-11T08:05:58.451Z,13.18
2022-12-11T08:08:26.085Z,8.70
2022-12-11T08:10:53.697Z,8.23
2022-12-11T08:13:21.302Z,11.57
2022-12-11T08:15:49.190Z,13.10
2022-12-11T08:18:16.715Z,10.05
2022-12-11T08:20:43.900Z,10.93
2022-12-11T08:23:12.103Z,10.95
2022-12-11T08:25:39.217Z,10.70
2022-12-11T08:28:06.814Z,11.02
2022-12-11T08:30:34.128Z,15.30
2022-12-11T08:33:01.756Z,10.63
2022-12-11T08:35:29.086Z,8.98
2022-12-11T08:37:56.595Z,10.32
2022-12-11T08:40:23.953Z,11.35
2022-12-11T08:42:52.559Z,9.85
2022-12-11T08:45:19.820Z,12.55
2022-12-11T08:47:47.616Z,8.15
2022-12-11T08:50:14.808Z,14.50
2022-12-11T08:52:42.337Z,13.07
2022-12-11T08:55:09.990Z,11.77
2022-12-11T08:57:39.935Z,12.60
2022-12-11T09:00:09.574Z,15.82
2022-12-11T09:02:37.137Z,13.93
2022-12-11T09:05:08.118Z,16.10
2022-12-11T09:07:37.403Z,15.38
2022-12-11T09:10:06.639Z,19.20
2022-12-11T09:12:34.878Z,16.45
2022-12-11T09:15:02.131Z,16.30
2022-12-11T09:17:29.680Z,14.60
2022-12-11T09:19:56.961Z,14.82
2022-12-11T09:22:24.444Z,12.45
2022-12-11T09:24:51.547Z,15.20
2022-12-11T09:27:21.464Z,12.82
2022-12-11T09:29:50.307Z,16.55
2022-12-11T09:32:18.083Z,14.50
2022-12-11T09:34:45.289Z,20.02
2022-12-11T09:37:12.927Z,13.88
2022-12-11T09:39:40.148Z,9.45
2022-12-11T09:42:49.903Z,11.32
2022-12-11T09:45:17.950Z,12.90
2022-12-11T09:47:50.427Z,10.57
2022-12-11T09:50:25.386Z,16.15
2022-12-11T09:53:17.269Z,13.57
2022-12-11T09:55:56.446Z,9.30
2022-12-11T09:58:56.506Z,11.52
2022-12-11T10:01:23.862Z,11.00
2022-12-11T10:04:06.638Z,13.90
2022-12-11T10:06:39.864Z,12.13
2022-12-11T10:09:22.423Z,10.95
2022-12-11T10:12:04.626Z,14.95
2022-12-11T10:14:35.142Z,10.68
2022-12-11T10:17:33.018Z,10.60
2022-12-11T10:20:24.939Z,12.02
2022-12-11T10:22:55.949Z,11.45
2022-12-11T10:25:31.942Z,14.65
2022-12-11T10:28:01.333Z,13.57
2022-12-11T10:30:39.265Z,12.82
2022-12-11T10:33:24.257Z,16.23
2022-12-11T10:36:00.073Z,10.40
2022-12-11T10:38:35.392Z,8.82
2022-12-11T10:41:19.497Z,9.93
2022-12-11T10:43:54.568Z,9.63
2022-12-11T10:46:28.387Z,9.90
2022-12-11T10:48:58.573Z,8.88
2022-12-11T10:51:30.933Z,10.68
2022-12-11T10:54:24.460Z,12.52
2022-12-11T10:56:54.858Z,10.63
2022-12-11T10:59:49.642Z,14.32
2022-12-11T11:02:37.356Z,13.35
2022-12-11T11:05:27.495Z,14.77
2022-12-11T11:08:13.796Z,12.60
2022-12-11T11:10:56.999Z,11.52
2022-12-11T11:13:27.693Z,12.30
2022-12-11T11:16:13.918Z,11.43
2022-12-11T11:21:21.215Z,12.93
2022-12-11T11:23:53.332Z,18.02
2022-12-11T11:26:38.231Z,12.10
2022-12-11T11:29:35.173Z,13.77
2022-12-11T11:32:18.939Z,11.98
2022-12-11T11:34:51.725Z,13.57
2022-12-11T11:37:39.846Z,12.05
2022-12-11T11:40:49.107Z,16.58
2022-12-11T11:43:32.473Z,11.75
2022-12-11T11:46:12.454Z,16.17
2022-12-11T11:48:48.703Z,21.05
2022-12-11T11:51:27.903Z,18.05
2022-12-11T11:54:10.524Z,10.98
2022-12-11T11:56:42.528Z,20.02
2022-12-11T11:59:25.294Z,12.90
2022-12-11T12:02:01.367Z,12.30
2022-12-11T12:04:39.929Z,16.60
2022-12-11T12:07:55.657Z,11.60
2022-12-11T12:10:48.714Z,13.50
2022-12-11T12:13:49.409Z,13.63
2022-12-11T12:16:58.192Z,19.10
2022-12-11T12:20:19.507Z,18.47
2022-12-11T12:23:36.466Z,15.32
2022-12-11T12:26:23.436Z,17.83
2022-12-11T12:29:18.740Z,15.70
2022-12-11T12:32:43.129Z,13.60
2022-12-11T12:35:17.315Z,9.15
2022-12-11T12:37:50.119Z,19.48
2022-12-11T12:40:41.673Z,16.23
2022-12-11T12:43:30.749Z,18.10
2022-12-11T12:46:34.017Z,18.10
2022-12-11T12:49:03.584Z,19.45
2022-12-11T12:51:31.508Z,18.10
2022-12-11T12:54:10.543Z,18.30
2022-12-11T12:56:41.748Z,12.60
2022-12-11T12:59:31.295Z,18.15
2022-12-11T13:02:03.219Z,15.75
2022-12-11T13:04:58.653Z,18.90
2022-12-11T13:07:30.573Z,20.13
2022-12-11T13:10:22.599Z,19.95
2022-12-11T13:12:50.864Z,12.30
2022-12-11T13:15:33.036Z,22.30
2022-12-11T13:18:04.137Z,12.95
2022-12-11T13:20:34.876Z,17.50
2022-12-11T13:23:28.278Z,21.15
2022-12-11T13:25:59.846Z,25.75
2022-12-11T13:28:47.094Z,28.00
2022-12-11T13:31:15.532Z,35.22
2022-12-11T13:33:49.047Z,31.90
2022-12-11T13:36:24.593Z,23.40
2022-12-11T13:38:59.512Z,31.88
2022-12-11T13:41:34.052Z,37.83
2022-12-11T13:44:03.390Z,39.58
2022-12-11T13:46:36.128Z,32.72
2022-12-11T13:49:07.312Z,39.80
2022-12-11T13:51:37.658Z,38.20
2022-12-11T13:54:19.481Z,33.53
2022-12-11T13:57:00.894Z,40.28
2022-12-11T13:59:47.177Z,48.72
2022-12-11T14:02:35.986Z,33.92
2022-12-11T14:05:10.759Z,33.75
2022-12-11T14:07:43.903Z,33.07
2022-12-11T14:10:20.679Z,30.15
2022-12-11T14:13:20.037Z,29.60
2022-12-11T14:15:48.215Z,31.10
2022-12-11T14:18:24.301Z,30.67
2022-12-11T14:21:01.189Z,26.95
2022-12-11T14:23:37.148Z,24.00
2022-12-11T14:26:18.301Z,21.95
2022-12-11T14:28:46.811Z,32.58
2022-12-11T14:31:34.410Z,39.72
2022-12-11T14:34:21.866Z,39.28
2022-12-11T14:36:50.446Z,39.95
2022-12-11T14:39:30.765Z,43.50
2022-12-11T14:42:04.681Z,29.90
2022-12-11T14:44:40.190Z,35.33
2022-12-11T14:47:19.305Z,31.88
2022-12-11T14:50:01.945Z,34.92
2022-12-11T14:53:01.179Z,30.50
2022-12-11T14:55:35.885Z,33.28
2022-12-11T14:58:12.755Z,34.92
2022-12-11T15:00:41.110Z,33.83
2022-12-11T15:03:34.725Z,30.63
2022-12-11T15:06:29.552Z,30.88
2022-12-11T15:09:44.590Z,36.65
2022-12-11T15:12:19.872Z,50.45
2022-12-11T15:14:51.645Z,50.42
2022-12-11T15:17:22.704Z,50.45
2022-12-11T15:20:03.400Z,53.17
2022-12-11T15:22:33.597Z,51.50
2022-12-11T15:25:01.826Z,54.28
2022-12-11T15:27:40.667Z,47.17
2022-12-11T15:30:27.199Z,42.47
2022-12-11T15:33:19.286Z,44.17
2022-12-11T15:36:10.427Z,51.47
2022-12-11T15:38:58.915Z,69.35
2022-12-11T15:41:36.081Z,56.88
2022-12-11T15:44:19.420Z,49.88
2022-12-11T15:46:47.297Z,38.75
2022-12-11T15:49:19.640Z,31.70
2022-12-11T15:51:47.576Z,33.83
2022-12-11T15:54:16.902Z,32.83
2022-12-11T15:56:45.296Z,31.48
2022-12-11T15:59:16.270Z,30.50
2022-12-11T16:01:45.779Z,31.85
2022-12-11T16:04:16.401Z,39.33
2022-12-11T16:06:46.755Z,43.70
2022-12-11T16:09:18.728Z,48.22
2022-12-11T16:11:50.101Z,48.53
2022-12-11T16:14:19.529Z,49.65
2022-12-11T16:16:47.789Z,41.25
2022-12-11T16:19:15.828Z,38.70
2022-12-11T16:21:47.360Z,39.65
2022-12-11T16:24:21.274Z,34.10
2022-12-11T16:26:50.196Z,36.67
2022-12-11T16:29:18.872Z,40.70
2022-12-11T16:31:46.589Z,39.95
2022-12-11T16:34:16.475Z,41.92
2022-12-11T16:36:45.583Z,40.50
2022-12-11T16:39:13.439Z,40.80
2022-12-11T16:41:40.892Z,35.97
2022-12-11T16:44:08.613Z,41.92
2022-12-11T16:46:36.288Z,42.95
2022-12-11T16:49:04.926Z,43.80
2022-12-11T16:51:32.333Z,39.15
2022-12-11T16:54:00.036Z,48.30
2022-12-11T16:56:28.324Z,48.58
2022-12-11T16:58:56.708Z,41.25
2022-12-11T17:01:25.045Z,45.20
2022-12-11T17:03:52.994Z,48.55
2022-12-11T17:06:20.525Z,41.30
2022-12-11T17:08:48.782Z,53.38
2022-12-11T17:11:21.309Z,60.35
2022-12-11T17:14:13.103Z,53.97
2022-12-11T17:16:40.671Z,49.92
2022-12-11T17:19:10.130Z,53.90
2022-12-11T17:21:38.179Z,55.55
2022-12-11T17:24:07.322Z,56.08
2022-12-11T17:26:35.209Z,51.60
2022-12-11T17:29:03.578Z,51.35
2022-12-11T17:31:31.009Z,51.08
2022-12-11T17:34:00.836Z,57.08
2022-12-11T17:36:28.298Z,56.47
2022-12-11T17:38:55.944Z,66.25
2022-12-11T17:41:24.094Z,76.00
2022-12-11T17:43:53.428Z,67.35
2022-12-11T17:46:22.118Z,67.30
2022-12-11T17:48:49.866Z,68.65
2022-12-11T17:51:24.260Z,73.78
2022-12-11T17:53:56.004Z,54.15
2022-12-11T17:56:24.368Z,52.55
2022-12-11T17:58:52.158Z,48.38
2022-12-11T18:01:20.220Z,51.45
2022-12-11T18:03:47.979Z,56.05
2022-12-11T18:06:16.897Z,47.03
2022-12-11T18:08:46.340Z,47.70
2022-12-11T18:11:16.515Z,47.33
2022-12-11T18:13:46.056Z,57.85
2022-12-11T18:16:20.882Z,54.92
2022-12-11T18:18:49.468Z,57.78
2022-12-11T18:21:22.126Z,53.20
2022-12-11T18:23:51.875Z,44.75
2022-12-11T18:26:20.063Z,39.53
2022-12-11T18:28:49.027Z,63.63
2022-12-11T18:31:17.211Z,54.10
2022-12-11T18:33:45.426Z,58.92
2022-12-11T18:36:15.210Z,44.10
2022-12-11T18:38:43.859Z,35.80
2022-12-11T18:41:13.466Z,64.97
2022-12-11T18:43:41.851Z,36.22
2022-12-11T18:46:14.521Z,38.53
2022-12-11T18:48:44.348Z,46.38
2022-12-11T18:51:14.579Z,43.20
2022-12-11T18:53:42.331Z,34.42
2022-12-11T18:56:13.331Z,48.13
2022-12-11T18:58:41.003Z,36.80
2022-12-11T19:01:11.069Z,69.85
2022-12-11T19:03:38.714Z,51.15
2022-12-11T19:06:08.278Z,50.25
2022-12-11T19:08:36.401Z,33.42
2022-12-11T19:11:04.249Z,36.88
2022-12-11T19:13:32.108Z,32.00
2022-12-11T19:16:00.858Z,29.98
2022-12-11T19:18:28.659Z,41.20
2022-12-11T19:21:06.464Z,31.27
2022-12-11T19:23:37.068Z,34.90
2022-12-11T19:26:04.950Z,34.13
2022-12-11T19:28:34.603Z,29.95
2022-12-11T19:31:01.976Z,41.20
2022-12-11T19:33:29.643Z,40.90
2022-12-11T19:36:12.222Z,36.00
2022-12-11T19:38:41.203Z,35.10
2022-12-11T19:41:12.478Z,42.47
2022-12-11T19:43:40.744Z,27.83
2022-12-11T19:46:08.877Z,31.67
2022-12-11T19:48:37.784Z,30.75
2022-12-11T19:51:09.734Z,24.52
2022-12-11T19:53:37.813Z,28.73
2022-12-11T19:56:05.642Z,25.95
2022-12-11T19:58:33.763Z,28.50
2022-12-11T20:01:01.694Z,27.27
2022-12-11T20:03:29.948Z,20.58
2022-12-11T20:06:02.613Z,24.65
2022-12-11T20:08:46.266Z,25.00
2022-12-11T20:11:18.382Z,31.02
2022-12-11T20:13:47.943Z,29.35
2022-12-11T20:16:16.864Z,24.95
2022-12-11T20:18:45.474Z,32.97
2022-12-11T20:21:16.386Z,33.30
2022-12-11T20:23:45.048Z,41.53
2022-12-11T20:26:14.058Z,44.42
2022-12-11T20:28:45.378Z,39.30
2022-12-11T20:31:19.933Z,49.75
2022-12-11T20:33:51.542Z,51.63
2022-12-11T20:36:21.308Z,54.95
2022-12-11T20:38:49.893Z,41.17
2022-12-11T20:41:20.733Z,49.00
2022-12-11T20:43:49.738Z,49.65
2022-12-11T20:46:18.710Z,48.55
2022-12-11T20:48:47.526Z,34.88
2022-12-11T20:51:20.866Z,47.05
2022-12-11T20:53:57.716Z,34.15
2022-12-11T20:56:27.868Z,32.35
2022-12-11T20:58:55.799Z,44.50
2022-12-11T21:01:25.066Z,41.72
2022-12-11T21:03:53.767Z,34.22
2022-12-11T21:06:30.544Z,33.95
2022-12-11T21:09:00.397Z,33.25
2022-12-11T21:11:28.008Z,38.55
2022-12-11T21:13:55.852Z,42.13
2022-12-11T21:16:23.966Z,50.78
2022-12-11T21:18:52.234Z,56.88
2022-12-11T21:21:20.419Z,56.08
2022-12-11T21:23:48.485Z,57.10
2022-12-11T21:26:16.285Z,39.72
2022-12-11T21:28:44.544Z,48.67
2022-12-11T21:31:15.007Z,45.67
2022-12-11T21:33:42.751Z,49.72
2022-12-11T21:36:13.239Z,49.55
2022-12-11T21:38:42.326Z,68.38
2022-12-11T21:41:13.719Z,64.03
2022-12-11T21:44:14.658Z,70.15
2022-12-11T21:46:30.637Z,66.95
2022-12-11T21:48:58.683Z,46.35
2022-12-11T21:51:36.936Z,50.35
2022-12-11T21:54:09.468Z,59.15
2022-12-11T21:56:37.646Z,48.00
2022-12-11T21:59:05.712Z,62.88
2022-12-11T22:01:41.167Z,75.30
2022-12-11T22:04:10.956Z,63.67
2022-12-11T22:06:38.287Z,44.83
2022-12-11T22:09:06.536Z,45.20
2022-12-11T22:11:34.964Z,46.67
2022-12-11T22:14:04.043Z,36.42
2022-12-11T22:16:31.472Z,27.45
2022-12-11T22:18:59.230Z,28.83
2022-12-11T22:21:27.100Z,25.85
2022-12-11T22:23:55.237Z,25.98
2022-12-11T22:26:26.300Z,31.25
2022-12-11T22:28:54.465Z,31.70
2022-12-11T22:31:24.434Z,38.22
2022-12-11T22:33:54.105Z,29.15
2022-12-11T22:36:26.618Z,34.25
2022-12-11T22:38:54.642Z,27.88
2022-12-11T22:41:28.404Z,28.20
2022-12-11T22:43:57.062Z,26.35
2022-12-11T22:46:27.768Z,27.88
2022-12-11T22:48:55.890Z,46.40
2022-12-11T22:51:23.264Z,45.53
2022-12-11T22:53:51.399Z,30.25
2022-12-11T22:56:18.622Z,31.27
2022-12-11T22:58:46.655Z,40.75
2022-12-11T23:01:16.962Z,30.55
2022-12-11T23:03:44.776Z,31.27
2022-12-11T23:06:15.501Z,51.92
2022-12-11T23:08:43.397Z,59.63
2022-12-11T23:11:18.313Z,62.67
2022-12-11T23:13:46.099Z,43.35
2022-12-11T23:16:14.026Z,40.72
2022-12-11T23:18:42.477Z,63.38
2022-12-11T23:21:10.528Z,63.35
2022-12-11T23:23:38.736Z,50.38
2022-12-11T23:26:07.917Z,42.50
2022-12-11T23:28:35.528Z,35.70
2022-12-11T23:31:02.920Z,31.08
2022-12-11T23:33:30.724Z,34.33
2022-12-11T23:35:59.658Z,41.33
2022-12-11T23:38:28.008Z,44.15
2022-12-11T23:40:55.661Z,40.40
2022-12-11T23:43:23.998Z,52.85
2022-12-11T23:45:52.210Z,46.42
2022-12-11T23:48:19.787Z,51.08
2022-12-11T23:50:47.388Z,51.08
2022-12-11T23:53:15.397Z,37.17
2022-12-11T23:55:44.756Z,42.97
2022-12-11T23:58:12.903Z,47.45
